Time;durP1;ratioP1;P1;durP2;ratioP2;P2;SDS_P1;SDS_P2;PMS_P1;PMS_P2;Temp;Humidity;BMP_temperature;BMP_pressure;BME280_temperature;BME280_humidity;BME280_pressure;Samples;Min_cycle;Max_cycle;Signal;HPM_P1;HPM_P2
2022/07/09 00:02:11;;;;;;;1.73;0.60;;;23.50;41.80;;;;;;5113476;28;20054;-62
2022/07/09 00:04:37;;;;;;;1.17;0.77;;;23.50;41.70;;;;;;5113206;28;20081;-62
2022/07/09 00:07:03;;;;;;;1.92;0.80;;;23.50;41.60;;;;;;5113204;28;20485;-62
2022/07/09 00:09:29;;;;;;;1.70;0.70;;;23.50;41.60;;;;;;5113018;28;20043;-62
2022/07/09 00:11:54;;;;;;;3.95;0.70;;;23.50;41.50;;;;;;5113370;28;20044;-62
2022/07/09 00:14:20;;;;;;;2.10;0.73;;;23.50;41.20;;;;;;5112911;28;20529;-62
2022/07/09 00:16:46;;;;;;;4.72;0.98;;;23.50;41.00;;;;;;5113087;28;20108;-62
2022/07/09 00:19:12;;;;;;;4.57;0.90;;;23.50;41.50;;;;;;5112867;28;20474;-62
2022/07/09 00:21:38;;;;;;;1.58;0.63;;;23.50;41.70;;;;;;5113003;28;20111;-62
2022/07/09 00:24:04;;;;;;;1.95;0.68;;;23.40;41.30;;;;;;5113249;28;20551;-62
2022/07/09 00:26:30;;;;;;;2.38;0.70;;;23.50;41.40;;;;;;5112801;28;20061;-62
2022/07/09 00:28:56;;;;;;;1.67;0.70;;;23.50;41.90;;;;;;5113170;28;20067;-62
2022/07/09 00:31:21;;;;;;;1.60;0.82;;;23.40;41.80;;;;;;5112940;28;20044;-62
2022/07/09 00:33:47;;;;;;;1.35;0.60;;;23.40;41.80;;;;;;5113040;28;20028;-63
2022/07/09 00:36:13;;;;;;;2.63;0.65;;;23.40;42.00;;;;;;5113004;28;20035;-63
2022/07/09 00:38:38;;;;;;;2.35;0.80;;;23.40;42.00;;;;;;5112638;28;20040;-63
2022/07/09 00:41:04;;;;;;;1.38;0.60;;;23.40;42.30;;;;;;5113009;28;20032;-62
2022/07/09 00:43:30;;;;;;;3.80;0.93;;;23.30;42.00;;;;;;5113130;28;20493;-62
2022/07/09 00:45:56;;;;;;;1.60;0.70;;;23.40;41.40;;;;;;5112930;28;20439;-63
2022/07/09 00:48:22;;;;;;;1.77;0.77;;;23.30;41.20;;;;;;5116186;28;20035;-62
2022/07/09 00:50:48;;;;;;;1.50;0.80;;;23.30;42.20;;;;;;5116564;28;20552;-62
2022/07/09 00:53:17;;;;;;;2.30;0.60;;;23.30;41.50;;;;;;5116843;28;20075;-62
2022/07/09 00:55:47;;;;;;;2.50;0.93;;;23.30;41.30;;;;;;5116679;28;20027;-65
2022/07/09 00:58:16;;;;;;;5.28;0.80;;;23.30;41.30;;;;;;5114859;28;20036;-63
2022/07/09 01:00:43;;;;;;;3.95;0.70;;;23.30;41.60;;;;;;5113441;28;20091;-62
2022/07/09 01:03:08;;;;;;;2.55;0.70;;;23.20;41.30;;;;;;5113796;28;20039;-63
2022/07/09 01:05:37;;;;;;;2.70;0.77;;;23.20;41.50;;;;;;5115781;28;20056;-63
2022/07/09 01:08:04;;;;;;;2.55;0.90;;;23.20;41.60;;;;;;5116202;28;20117;-63
2022/07/09 01:10:31;;;;;;;4.70;0.80;;;23.20;41.20;;;;;;5116012;28;20031;-62
2022/07/09 01:12:57;;;;;;;1.70;0.70;;;23.20;41.00;;;;;;5116077;28;20031;-62
2022/07/09 01:15:23;;;;;;;1.92;0.70;;;23.20;41.00;;;;;;5116072;28;20572;-62
2022/07/09 01:17:51;;;;;;;2.58;0.90;;;23.10;40.90;;;;;;5115845;28;20397;-62
2022/07/09 01:20:28;;;;;;;0.95;0.63;;;23.10;40.80;;;;;;5115834;28;20034;-62
2022/07/09 01:22:54;;;;;;;2.45;0.73;;;23.10;41.30;;;;;;5116148;28;20403;-63
2022/07/09 01:25:35;;;;;;;1.55;0.77;;;23.10;41.40;;;;;;5116046;28;20035;-63
2022/07/09 01:28:01;;;;;;;3.95;1.17;;;23.00;41.20;;;;;;5115800;28;20032;-63
2022/07/09 01:30:28;;;;;;;3.47;0.80;;;23.00;41.60;;;;;;5115724;28;20489;-63
2022/07/09 01:32:54;;;;;;;1.73;0.82;;;23.10;42.00;;;;;;5115891;28;20443;-63
2022/07/09 01:35:23;;;;;;;3.50;1.17;;;23.10;42.50;;;;;;5115477;28;20077;-63
2022/07/09 01:37:50;;;;;;;2.85;1.10;;;23.00;42.90;;;;;;5115568;28;20146;-62
2022/07/09 01:40:16;;;;;;;6.07;1.00;;;22.90;42.80;;;;;;5115541;28;20082;-63
2022/07/09 01:42:41;;;;;;;3.88;0.82;;;22.90;42.90;;;;;;5115859;28;20461;-63
2022/07/09 01:45:08;;;;;;;2.33;0.70;;;22.90;43.50;;;;;;5115425;28;20032;-62
2022/07/09 01:47:33;;;;;;;2.00;0.73;;;22.90;43.60;;;;;;5115641;28;20066;-64
2022/07/09 01:49:59;;;;;;;1.40;0.70;;;22.80;43.50;;;;;;5114665;28;20461;-63
2022/07/09 01:52:25;;;;;;;2.90;0.82;;;22.80;43.70;;;;;;5114472;28;20086;-63
2022/07/09 01:54:51;;;;;;;1.80;0.75;;;22.70;43.70;;;;;;5115167;28;20038;-62
2022/07/09 01:57:17;;;;;;;3.90;1.08;;;22.70;43.90;;;;;;5115557;28;20040;-63
2022/07/09 01:59:42;;;;;;;2.75;1.00;;;22.70;43.70;;;;;;5114689;28;20028;-62
2022/07/09 02:02:08;;;;;;;2.55;0.73;;;22.70;43.50;;;;;;5115403;28;20092;-63
2022/07/09 02:04:34;;;;;;;3.03;0.93;;;22.60;43.20;;;;;;5115137;28;20466;-63
2022/07/09 02:06:59;;;;;;;6.68;0.90;;;22.60;43.10;;;;;;5115167;28;20443;-63
2022/07/09 02:09:25;;;;;;;2.10;0.68;;;22.60;43.30;;;;;;5115157;28;20440;-63
2022/07/09 02:11:51;;;;;;;3.42;0.88;;;22.50;43.40;;;;;;5114999;28;20043;-63
2022/07/09 02:14:16;;;;;;;2.78;0.90;;;22.50;43.10;;;;;;5115236;28;20028;-63
2022/07/09 02:16:43;;;;;;;3.97;0.70;;;22.50;42.90;;;;;;5115109;28;20058;-63
2022/07/09 02:19:09;;;;;;;3.28;0.80;;;22.40;42.40;;;;;;5114963;28;20557;-63
2022/07/09 02:21:35;;;;;;;5.25;0.88;;;22.50;41.90;;;;;;5114644;28;20128;-63
2022/07/09 02:24:01;;;;;;;6.70;0.82;;;22.40;41.80;;;;;;5114695;28;20112;-63
2022/07/09 02:26:29;;;;;;;4.07;0.82;;;22.40;42.20;;;;;;5114774;28;20047;-62
2022/07/09 02:28:55;;;;;;;2.47;0.90;;;22.50;42.50;;;;;;5115006;28;20501;-63
2022/07/09 02:31:21;;;;;;;3.70;1.02;;;22.40;42.60;;;;;;5114736;28;20040;-63
2022/07/09 02:33:46;;;;;;;1.48;0.70;;;22.40;42.80;;;;;;5114502;28;20036;-63
2022/07/09 02:36:12;;;;;;;4.00;0.80;;;22.40;43.00;;;;;;5114488;28;20036;-63
2022/07/09 02:38:38;;;;;;;3.08;0.90;;;22.40;43.20;;;;;;5114421;28;20035;-63
2022/07/09 02:41:04;;;;;;;2.10;0.70;;;22.40;43.50;;;;;;5114710;28;20496;-63
2022/07/09 02:43:30;;;;;;;3.13;0.95;;;22.40;43.30;;;;;;5114929;28;20517;-63
2022/07/09 02:45:55;;;;;;;3.53;0.55;;;22.40;43.50;;;;;;5114386;28;20493;-63
2022/07/09 02:48:22;;;;;;;2.50;0.80;;;22.40;43.80;;;;;;5114459;28;20535;-63
2022/07/09 02:50:49;;;;;;;2.92;1.05;;;22.30;43.40;;;;;;5114203;28;20081;-62
2022/07/09 02:53:15;;;;;;;1.77;0.77;;;22.30;43.20;;;;;;5114231;28;20063;-62
2022/07/09 02:55:41;;;;;;;3.17;0.90;;;22.30;43.90;;;;;;5114268;28;20070;-63
2022/07/09 02:58:06;;;;;;;2.13;0.73;;;22.30;44.30;;;;;;5113877;28;20034;-63
2022/07/09 03:00:32;;;;;;;2.22;0.80;;;22.20;44.50;;;;;;5114093;28;20401;-63
2022/07/09 03:02:58;;;;;;;3.28;0.70;;;22.20;44.10;;;;;;5114254;28;20114;-63
2022/07/09 03:05:24;;;;;;;2.20;0.77;;;22.20;44.20;;;;;;5114041;28;20030;-63
2022/07/09 03:07:50;;;;;;;1.45;0.70;;;22.20;44.40;;;;;;5113778;28;20040;-63
2022/07/09 03:10:15;;;;;;;2.17;1.20;;;22.10;44.70;;;;;;5113998;28;20125;-63
2022/07/09 03:12:41;;;;;;;4.03;0.90;;;22.10;45.00;;;;;;5114038;28;20047;-63
2022/07/09 03:15:10;;;;;;;2.63;0.77;;;22.10;45.10;;;;;;5113719;28;20114;-62
2022/07/09 03:17:35;;;;;;;1.67;0.70;;;22.10;45.00;;;;;;5113744;28;20047;-67
2022/07/09 03:20:01;;;;;;;6.40;0.70;;;22.10;44.80;;;;;;5113932;28;20446;-63
2022/07/09 03:22:27;;;;;;;1.13;0.70;;;22.00;44.60;;;;;;5113750;28;20068;-63
2022/07/09 03:24:52;;;;;;;1.52;0.90;;;22.00;44.70;;;;;;5113856;28;20106;-63
2022/07/09 03:27:18;;;;;;;1.98;0.60;;;22.00;44.60;;;;;;5113923;28;20031;-63
2022/07/09 03:29:44;;;;;;;4.22;0.80;;;22.00;44.30;;;;;;5114206;28;20031;-65
2022/07/09 03:32:09;;;;;;;1.65;0.60;;;22.00;44.40;;;;;;5113594;28;20043;-63
2022/07/09 03:34:35;;;;;;;3.50;0.60;;;22.00;44.50;;;;;;5113326;28;20472;-63
2022/07/09 03:37:01;;;;;;;5.63;0.93;;;22.00;44.40;;;;;;5113531;28;20044;-63
2022/07/09 03:39:27;;;;;;;5.53;0.68;;;22.00;44.10;;;;;;5113548;28;20032;-63
2022/07/09 03:41:52;;;;;;;2.17;0.80;;;22.00;44.60;;;;;;5113217;28;20047;-63
2022/07/09 03:44:18;;;;;;;2.65;0.70;;;21.90;44.90;;;;;;5113765;28;20024;-66
2022/07/09 03:46:44;;;;;;;1.58;0.75;;;21.90;45.00;;;;;;5113646;28;20042;-63
2022/07/09 03:49:10;;;;;;;5.28;0.80;;;21.90;45.20;;;;;;5113713;28;20039;-63
2022/07/09 03:51:37;;;;;;;1.15;0.60;;;21.80;45.30;;;;;;5112982;28;20044;-63
2022/07/09 03:54:02;;;;;;;2.88;1.00;;;21.90;45.50;;;;;;5113365;28;20024;-63
2022/07/09 03:56:28;;;;;;;6.72;0.90;;;21.80;45.60;;;;;;5113338;28;20046;-63
2022/07/09 03:58:54;;;;;;;3.92;0.70;;;21.80;45.90;;;;;;5113140;28;20053;-64
2022/07/09 04:01:20;;;;;;;2.00;0.80;;;21.80;46.30;;;;;;5113206;28;20088;-63
2022/07/09 04:03:45;;;;;;;4.05;0.75;;;21.70;47.30;;;;;;5113116;28;20481;-63
2022/07/09 04:06:12;;;;;;;1.85;1.00;;;21.80;48.40;;;;;;5113071;28;20031;-62
2022/07/09 04:08:37;;;;;;;1.70;0.75;;;21.70;49.40;;;;;;5113319;28;20035;-63
2022/07/09 04:11:03;;;;;;;2.53;0.90;;;21.70;49.60;;;;;;5113244;28;20052;-63
2022/07/09 04:13:29;;;;;;;5.28;0.77;;;21.60;49.60;;;;;;5113398;28;20500;-63
2022/07/09 04:15:55;;;;;;;2.67;0.65;;;21.50;49.60;;;;;;5112837;28;20042;-64
2022/07/09 04:18:20;;;;;;;1.73;0.70;;;21.50;49.50;;;;;;5112987;28;20089;-63
2022/07/09 04:20:46;;;;;;;4.63;0.80;;;21.50;49.70;;;;;;5112972;28;20071;-63
2022/07/09 04:23:12;;;;;;;4.65;1.00;;;21.40;49.50;;;;;;5116809;28;20470;-62
2022/07/09 04:25:38;;;;;;;1.33;0.70;;;21.40;49.70;;;;;;5117150;28;20118;-62
2022/07/09 04:28:05;;;;;;;3.13;0.95;;;21.40;49.80;;;;;;5116682;28;20460;-62
2022/07/09 04:30:31;;;;;;;2.63;0.70;;;21.30;49.90;;;;;;5115769;28;20039;-65
2022/07/09 04:32:57;;;;;;;1.13;0.70;;;21.40;50.20;;;;;;5115210;28;20047;-65
2022/07/09 04:35:22;;;;;;;2.80;0.80;;;21.30;50.00;;;;;;5114944;28;20027;-65
2022/07/09 04:37:48;;;;;;;2.50;0.90;;;21.30;50.00;;;;;;5115485;28;20089;-65
2022/07/09 04:40:14;;;;;;;2.28;0.73;;;21.30;49.90;;;;;;5116729;28;20042;-64
2022/07/09 04:42:40;;;;;;;2.67;0.70;;;21.30;49.60;;;;;;5116530;28;20032;-64
2022/07/09 04:45:06;;;;;;;2.75;0.80;;;21.30;49.10;;;;;;5117085;28;20032;-64
2022/07/09 04:47:32;;;;;;;1.88;0.80;;;21.30;48.00;;;;;;5115867;28;20106;-65
2022/07/09 04:49:57;;;;;;;4.00;0.80;;;21.40;48.30;;;;;;5115901;28;20149;-65
2022/07/09 04:52:26;;;;;;;4.28;0.73;;;21.40;49.80;;;;;;5115671;28;20051;-64
2022/07/09 04:54:53;;;;;;;3.50;0.70;;;21.40;50.90;;;;;;5115803;28;20027;-65
2022/07/09 04:57:19;;;;;;;4.03;0.77;;;21.40;51.20;;;;;;5115792;28;20093;-65
2022/07/09 04:59:45;;;;;;;3.05;1.13;;;21.40;51.10;;;;;;5116039;28;20032;-65
2022/07/09 05:02:11;;;;;;;4.10;0.80;;;21.40;51.30;;;;;;5115868;28;20039;-65
2022/07/09 05:04:37;;;;;;;2.60;1.02;;;21.40;51.40;;;;;;5115881;28;20066;-66
2022/07/09 05:07:03;;;;;;;5.32;0.80;;;21.40;51.00;;;;;;5116486;28;20067;-65
2022/07/09 05:09:29;;;;;;;0.90;0.60;;;21.40;50.80;;;;;;5116066;28;20059;-65
2022/07/09 05:11:55;;;;;;;7.97;0.75;;;21.50;50.80;;;;;;5116068;28;20397;-65
2022/07/09 05:14:21;;;;;;;2.55;0.75;;;21.50;50.40;;;;;;5115786;28;20036;-65
2022/07/09 05:16:47;;;;;;;2.72;0.80;;;21.50;50.10;;;;;;5115816;28;20040;-65
2022/07/09 05:19:13;;;;;;;3.67;0.70;;;21.50;49.30;;;;;;5115912;28;20081;-66
2022/07/09 05:21:42;;;;;;;2.05;0.63;;;21.60;49.20;;;;;;5116453;28;20043;-66
2022/07/09 05:24:08;;;;;;;6.75;0.80;;;21.60;48.60;;;;;;5116096;28;20024;-66
2022/07/09 05:26:35;;;;;;;2.50;0.70;;;21.60;48.30;;;;;;5115710;28;20036;-66
2022/07/09 05:29:02;;;;;;;1.02;0.60;;;21.60;48.30;;;;;;5115862;28;20054;-66
2022/07/09 05:31:28;;;;;;;2.60;1.00;;;21.70;48.20;;;;;;5115592;28;20039;-66
2022/07/09 05:33:54;;;;;;;5.93;1.40;;;21.80;48.60;;;;;;5113480;28;20028;-70
2022/07/09 05:36:19;;;;;;;3.05;0.70;;;21.80;49.40;;;;;;5115669;28;20065;-65
2022/07/09 05:38:47;;;;;;;4.22;1.00;;;21.80;49.30;;;;;;5115959;28;20031;-66
2022/07/09 05:41:14;;;;;;;1.27;0.50;;;21.90;49.20;;;;;;5115506;28;20027;-65
2022/07/09 05:43:40;;;;;;;4.00;0.73;;;21.90;49.60;;;;;;5115751;28;20073;-65
2022/07/09 05:46:05;;;;;;;2.53;0.77;;;21.90;49.20;;;;;;5115771;28;20035;-71
2022/07/09 05:48:31;;;;;;;2.17;0.70;;;22.00;49.00;;;;;;5115400;28;20039;-66
2022/07/09 05:50:57;;;;;;;2.83;1.15;;;22.00;48.90;;;;;;5114743;28;20044;-66
2022/07/09 05:53:22;;;;;;;3.00;0.52;;;22.00;49.30;;;;;;5114622;28;20035;-66
2022/07/09 05:55:49;;;;;;;4.13;0.80;;;22.10;49.90;;;;;;5115210;28;20039;-64
2022/07/09 05:58:15;;;;;;;3.20;0.70;;;22.10;50.40;;;;;;5114438;28;20030;-64
2022/07/09 06:00:41;;;;;;;2.50;0.90;;;22.10;50.40;;;;;;5114580;28;20036;-63
2022/07/09 06:03:07;;;;;;;1.77;0.73;;;22.10;50.10;;;;;;5114399;28;20027;-64
2022/07/09 06:05:33;;;;;;;2.83;0.70;;;22.20;50.30;;;;;;5114979;28;20080;-63
2022/07/09 06:07:58;;;;;;;1.58;0.70;;;22.20;50.60;;;;;;5114585;28;20035;-63
2022/07/09 06:10:24;;;;;;;2.75;0.93;;;22.20;50.40;;;;;;5114472;28;20039;-65
2022/07/09 06:12:50;;;;;;;4.47;1.00;;;22.20;50.40;;;;;;5114630;28;20050;-64
2022/07/09 06:15:16;;;;;;;2.38;1.00;;;22.20;51.20;;;;;;5114562;28;20031;-62
2022/07/09 06:17:41;;;;;;;3.30;1.10;;;22.30;50.40;;;;;;5113004;28;20103;-63
2022/07/09 06:20:07;;;;;;;2.90;1.00;;;22.40;50.00;;;;;;5112340;28;20038;-65
2022/07/09 06:22:33;;;;;;;1.63;0.80;;;22.40;49.90;;;;;;5113291;28;20107;-61
2022/07/09 06:24:59;;;;;;;2.40;0.70;;;22.50;49.90;;;;;;5114008;28;20494;-63
2022/07/09 06:27:24;;;;;;;5.93;0.82;;;22.50;50.40;;;;;;5114015;28;20419;-64
2022/07/09 06:29:50;;;;;;;3.92;0.90;;;22.50;49.60;;;;;;5113979;28;20044;-63
2022/07/09 06:32:16;;;;;;;2.83;0.80;;;22.60;49.70;;;;;;5114816;28;20047;-63
2022/07/09 06:34:42;;;;;;;2.53;1.15;;;22.70;49.70;;;;;;5114665;28;20028;-63
2022/07/09 06:37:07;;;;;;;3.75;0.60;;;22.70;49.70;;;;;;5114421;28;20039;-63
2022/07/09 06:39:45;;;;;;;2.00;0.80;;;22.70;49.60;;;;;;5114113;28;20032;-63
2022/07/09 06:42:13;;;;;;;4.57;0.90;;;22.80;49.50;;;;;;5113896;28;20036;-63
2022/07/09 06:44:39;;;;;;;3.75;0.77;;;22.90;49.50;;;;;;5113850;28;20378;-64
2022/07/09 06:47:06;;;;;;;2.40;0.77;;;22.90;49.40;;;;;;5114282;28;20485;-63
2022/07/09 06:49:32;;;;;;;2.25;0.68;;;22.90;48.70;;;;;;5114662;28;20020;-63
2022/07/09 06:51:58;;;;;;;8.93;0.80;;;23.00;48.60;;;;;;5114389;28;20542;-63
2022/07/09 06:54:24;;;;;;;3.10;0.90;;;23.00;48.40;;;;;;5114443;28;20028;-63
2022/07/09 06:56:50;;;;;;;2.95;1.00;;;23.10;48.30;;;;;;5114358;28;20088;-64
2022/07/09 06:59:18;;;;;;;2.95;1.00;;;23.10;48.50;;;;;;5114198;28;20389;-63
2022/07/09 07:01:47;;;;;;;2.33;0.68;;;23.20;48.40;;;;;;5114636;28;20032;-63
2022/07/09 07:04:14;;;;;;;3.42;0.90;;;23.30;47.90;;;;;;5114448;28;20381;-63
2022/07/09 07:06:41;;;;;;;2.20;0.70;;;23.30;47.50;;;;;;5114187;28;20034;-63
2022/07/09 07:09:06;;;;;;;2.15;0.70;;;23.30;47.10;;;;;;5114155;28;20035;-64
2022/07/09 07:11:32;;;;;;;3.45;0.60;;;23.40;46.60;;;;;;5113940;28;20085;-63
2022/07/09 07:13:58;;;;;;;3.58;0.68;;;23.50;46.30;;;;;;5113983;28;20040;-63
2022/07/09 07:16:23;;;;;;;2.88;1.13;;;23.50;45.60;;;;;;5114054;28;20143;-63
2022/07/09 07:18:49;;;;;;;1.50;0.88;;;23.60;44.60;;;;;;5114053;28;20481;-63
2022/07/09 07:21:15;;;;;;;2.40;0.90;;;23.60;44.50;;;;;;5113647;28;20526;-67
2022/07/09 07:23:40;;;;;;;3.17;1.08;;;23.70;44.80;;;;;;5113899;28;20036;-64
2022/07/09 07:26:06;;;;;;;2.00;0.70;;;23.80;44.20;;;;;;5113831;28;20028;-64
2022/07/09 07:28:32;;;;;;;2.90;0.80;;;23.80;43.70;;;;;;5113835;28;20032;-63
2022/07/09 07:30:58;;;;;;;3.33;0.90;;;23.80;43.10;;;;;;5113952;28;20044;-63
2022/07/09 07:33:23;;;;;;;11.70;1.40;;;23.90;43.40;;;;;;5113670;28;20053;-63
2022/07/09 07:35:49;;;;;;;1.95;0.73;;;24.00;43.30;;;;;;5114007;28;20110;-63
2022/07/09 07:38:15;;;;;;;6.78;0.70;;;24.00;43.00;;;;;;5113585;28;20027;-63
2022/07/09 07:40:42;;;;;;;1.58;0.60;;;24.00;42.90;;;;;;5113293;28;20469;-63
2022/07/09 07:43:10;;;;;;;2.00;0.70;;;24.10;42.50;;;;;;5113541;28;20051;-64
2022/07/09 07:45:36;;;;;;;1.70;0.50;;;24.10;42.50;;;;;;5113434;28;20023;-63
2022/07/09 07:48:02;;;;;;;1.15;0.60;;;24.20;42.50;;;;;;5113745;28;20035;-63
2022/07/09 07:50:27;;;;;;;1.88;0.82;;;24.30;42.30;;;;;;5113606;28;20057;-63
2022/07/09 07:52:53;;;;;;;2.45;0.70;;;24.30;41.60;;;;;;5113472;28;20047;-63
2022/07/09 07:55:19;;;;;;;3.33;0.70;;;24.30;41.10;;;;;;5113806;28;20062;-63
2022/07/09 07:57:44;;;;;;;3.70;0.70;;;24.40;41.00;;;;;;5113198;28;20038;-63
2022/07/09 08:00:11;;;;;;;2.20;0.60;;;24.50;40.90;;;;;;5113504;28;20055;-63
2022/07/09 08:02:36;;;;;;;0.70;0.50;;;24.50;40.50;;;;;;5113454;28;20039;-63
2022/07/09 08:05:02;;;;;;;2.58;0.60;;;24.60;40.60;;;;;;5113521;28;20478;-66
2022/07/09 08:07:28;;;;;;;3.42;0.73;;;24.60;40.40;;;;;;5113355;28;20398;-63
2022/07/09 08:09:53;;;;;;;2.13;0.60;;;24.70;40.40;;;;;;5113355;28;20028;-64
2022/07/09 08:12:19;;;;;;;2.40;0.60;;;24.70;40.00;;;;;;5113419;28;20473;-63
2022/07/09 08:14:45;;;;;;;0.85;0.60;;;24.80;40.20;;;;;;5113286;28;20028;-64
2022/07/09 08:17:11;;;;;;;2.17;0.60;;;24.80;40.00;;;;;;5113236;28;20468;-63
2022/07/09 08:19:37;;;;;;;1.30;0.60;;;24.90;39.50;;;;;;5113372;28;20068;-63
2022/07/09 08:22:03;;;;;;;1.42;0.70;;;25.00;39.10;;;;;;5113201;28;20043;-64
2022/07/09 08:24:28;;;;;;;1.15;0.68;;;25.00;39.10;;;;;;5113149;28;20135;-63
2022/07/09 08:26:54;;;;;;;3.50;0.70;;;25.10;39.30;;;;;;5113346;28;20063;-63
2022/07/09 08:29:20;;;;;;;0.88;0.50;;;25.20;38.90;;;;;;5113269;28;20035;-64
2022/07/09 08:31:47;;;;;;;1.08;0.63;;;25.20;38.40;;;;;;5113049;28;20036;-64
2022/07/09 08:34:13;;;;;;;2.67;0.73;;;25.30;38.30;;;;;;5113171;28;20062;-63
2022/07/09 08:36:38;;;;;;;1.90;0.80;;;25.30;38.30;;;;;;5113313;28;20067;-65
2022/07/09 08:39:04;;;;;;;1.52;0.65;;;25.40;38.60;;;;;;5112797;28;20036;-64
2022/07/09 08:41:30;;;;;;;3.67;0.80;;;25.40;38.90;;;;;;5113029;28;20078;-64
2022/07/09 08:43:55;;;;;;;3.97;1.85;;;25.50;39.10;;;;;;5112854;28;20119;-64
2022/07/09 08:46:21;;;;;;;11.30;3.50;;;25.60;38.90;;;;;;5113043;28;20439;-63
2022/07/09 08:48:48;;;;;;;2.08;0.98;;;25.60;39.10;;;;;;5113156;28;20035;-64
2022/07/09 08:51:13;;;;;;;1.58;0.73;;;25.80;39.20;;;;;;5112979;28;20493;-64
2022/07/09 08:53:43;;;;;;;2.05;0.70;;;25.80;39.30;;;;;;5112682;28;20043;-66
2022/07/09 08:56:10;;;;;;;0.73;0.45;;;25.90;38.50;;;;;;5112845;28;20027;-64
2022/07/09 08:58:37;;;;;;;2.33;0.60;;;25.90;38.00;;;;;;5113265;28;20032;-63
2022/07/09 09:01:04;;;;;;;4.05;1.20;;;26.00;38.10;;;;;;5112829;28;20035;-64
2022/07/09 09:03:30;;;;;;;2.92;1.00;;;26.10;38.40;;;;;;5113009;28;20039;-63
2022/07/09 09:06:05;;;;;;;2.10;0.80;;;26.20;38.60;;;;;;5112986;28;20028;-63
2022/07/09 09:08:53;;;;;;;1.75;0.70;;;26.30;37.90;;;;;;5114791;28;20034;-64
2022/07/09 09:11:24;;;;;;;1.40;0.60;;;26.30;37.60;;;;;;5116226;28;20421;-64
2022/07/09 09:13:51;;;;;;;1.63;0.70;;;26.40;37.90;;;;;;5116267;28;20478;-63
2022/07/09 09:16:18;;;;;;;1.13;0.40;;;26.50;37.50;;;;;;5116105;28;20516;-63
2022/07/09 09:18:49;;;;;;;3.22;0.98;;;26.50;37.20;;;;;;5116106;28;20612;-64
2022/07/09 09:21:18;;;;;;;1.10;0.50;;;26.50;37.20;;;;;;5116128;28;20115;-64
2022/07/09 09:23:55;;;;;;;2.20;0.57;;;26.60;37.80;;;;;;5116194;28;20077;-63
2022/07/09 09:26:22;;;;;;;1.65;0.77;;;26.70;37.30;;;;;;5116186;28;20434;-64
2022/07/09 09:28:52;;;;;;;1.23;0.60;;;26.70;37.10;;;;;;5116367;28;20032;-63
2022/07/09 09:31:29;;;;;;;1.92;0.73;;;26.80;36.50;;;;;;5116241;28;20096;-64
2022/07/09 09:34:04;;;;;;;1.55;0.73;;;26.80;36.00;;;;;;5116043;28;20115;-64
2022/07/09 09:36:34;;;;;;;1.55;0.60;;;26.90;36.00;;;;;;5116437;28;20485;-64
2022/07/09 09:39:23;;;;;;;1.73;0.55;;;26.90;35.90;;;;;;5115821;28;20039;-64
2022/07/09 09:41:52;;;;;;;2.33;0.65;;;26.90;35.40;;;;;;5115704;28;20040;-62
2022/07/09 09:44:20;;;;;;;1.75;0.70;;;27.00;36.40;;;;;;5115858;28;20074;-64
2022/07/09 09:46:46;;;;;;;1.90;0.65;;;27.00;35.90;;;;;;5115816;28;20063;-65
2022/07/09 09:49:15;;;;;;;1.48;0.57;;;27.00;35.90;;;;;;5115614;28;20024;-64
2022/07/09 09:51:49;;;;;;;1.88;0.60;;;27.10;36.30;;;;;;5115729;28;20048;-64
2022/07/09 09:54:16;;;;;;;1.50;0.75;;;27.20;36.00;;;;;;5115732;28;20032;-64
2022/07/09 09:56:42;;;;;;;3.05;0.57;;;27.20;36.10;;;;;;5115833;28;20036;-64
2022/07/09 09:59:10;;;;;;;1.50;0.45;;;27.30;35.40;;;;;;5115718;28;20091;-64
2022/07/09 10:01:36;;;;;;;2.17;0.77;;;27.30;35.50;;;;;;5115377;28;20028;-64
2022/07/09 10:04:01;;;;;;;1.40;0.70;;;27.40;35.60;;;;;;5115235;28;20038;-67
2022/07/09 10:06:27;;;;;;;1.58;0.68;;;27.50;36.40;;;;;;5115206;28;20027;-64
2022/07/09 10:08:55;;;;;;;1.73;0.60;;;27.50;35.70;;;;;;5115611;28;20059;-64
2022/07/09 10:11:21;;;;;;;3.97;0.73;;;27.60;34.90;;;;;;5115103;28;20040;-64
2022/07/09 10:13:55;;;;;;;2.08;0.90;;;27.60;34.80;;;;;;5115196;28;20039;-64
2022/07/09 10:16:38;;;;;;;1.70;0.73;;;27.70;34.60;;;;;;5115204;28;20048;-63
2022/07/09 10:19:05;;;;;;;1.70;0.57;;;27.70;34.40;;;;;;5114401;28;20039;-64
2022/07/09 10:21:35;;;;;;;1.67;0.70;;;27.80;34.30;;;;;;5115194;28;20370;-63
2022/07/09 10:24:02;;;;;;;3.72;1.05;;;27.80;34.60;;;;;;5114956;28;20031;-64
2022/07/09 10:26:46;;;;;;;1.63;0.60;;;27.80;34.50;;;;;;5114890;28;20035;-64
2022/07/09 10:29:23;;;;;;;1.85;0.80;;;27.90;35.40;;;;;;5114793;28;20031;-65
2022/07/09 10:31:49;;;;;;;1.60;0.60;;;27.90;35.10;;;;;;5115379;28;20043;-64
2022/07/09 10:34:43;;;;;;;2.45;0.93;;;27.90;34.10;;;;;;5114977;28;20389;-65
2022/07/09 10:37:10;;;;;;;2.70;0.50;;;27.90;34.30;;;;;;5114933;28;20125;-65
2022/07/09 10:39:35;;;;;;;1.75;0.80;;;27.80;34.70;;;;;;5114906;28;20100;-63
2022/07/09 10:42:06;;;;;;;2.22;0.73;;;27.80;34.50;;;;;;5114594;28;20557;-64
2022/07/09 10:44:37;;;;;;;2.70;0.70;;;27.80;34.90;;;;;;5114824;28;20040;-64
2022/07/09 10:47:05;;;;;;;2.22;0.80;;;27.90;34.90;;;;;;5114693;28;20051;-64
2022/07/09 10:49:34;;;;;;;4.38;0.77;;;27.80;35.60;;;;;;5114420;28;20036;-63
2022/07/09 10:51:59;;;;;;;1.77;0.65;;;27.80;35.30;;;;;;5114310;28;20043;-64
2022/07/09 10:54:26;;;;;;;1.13;0.50;;;27.70;35.00;;;;;;5114270;28;20023;-64
2022/07/09 10:56:53;;;;;;;1.45;0.70;;;27.70;34.50;;;;;;5114505;28;20074;-67
2022/07/09 10:59:19;;;;;;;0.93;0.47;;;27.60;35.00;;;;;;5114454;28;20043;-64
2022/07/09 11:01:45;;;;;;;0.77;0.55;;;27.60;35.00;;;;;;5114087;28;20389;-64
2022/07/09 11:04:13;;;;;;;1.08;0.60;;;27.60;34.70;;;;;;5114433;28;20439;-64
2022/07/09 11:06:48;;;;;;;3.55;0.70;;;27.70;34.30;;;;;;5114354;28;20036;-64
2022/07/09 11:09:15;;;;;;;1.48;0.60;;;27.80;34.50;;;;;;5114198;28;20093;-64
2022/07/09 11:11:44;;;;;;;2.50;0.70;;;27.80;35.00;;;;;;5113996;28;20096;-64
2022/07/09 11:14:11;;;;;;;1.30;0.68;;;27.90;34.70;;;;;;5114059;28;20111;-63
2022/07/09 11:16:37;;;;;;;2.03;0.90;;;27.90;35.10;;;;;;5113736;28;20115;-64
2022/07/09 11:19:19;;;;;;;1.92;0.75;;;28.00;35.30;;;;;;5114297;28;20031;-64
2022/07/09 11:21:46;;;;;;;1.60;0.60;;;28.00;35.30;;;;;;5113823;28;20118;-64
2022/07/09 11:24:15;;;;;;;1.85;0.60;;;28.00;35.40;;;;;;5114015;28;20390;-64
2022/07/09 11:26:41;;;;;;;1.10;0.60;;;28.00;35.60;;;;;;5114205;28;20032;-64
2022/07/09 11:29:08;;;;;;;1.50;0.60;;;28.00;35.90;;;;;;5113563;28;20492;-63
2022/07/09 11:31:35;;;;;;;1.48;0.63;;;28.00;35.60;;;;;;5112714;28;20050;-64
2022/07/09 11:34:13;;;;;;;2.38;0.90;;;28.00;35.10;;;;;;5113660;28;20028;-64
2022/07/09 11:36:47;;;;;;;1.55;0.80;;;27.90;34.80;;;;;;5113545;28;20040;-64
2022/07/09 11:39:33;;;;;;;1.00;0.60;;;27.90;34.80;;;;;;5113811;28;20020;-64
2022/07/09 11:42:01;;;;;;;1.70;0.60;;;27.90;35.40;;;;;;5113477;28;20577;-64
2022/07/09 11:44:28;;;;;;;1.27;0.50;;;27.80;35.20;;;;;;5113467;28;20054;-64
2022/07/09 11:47:08;;;;;;;1.77;0.70;;;27.80;35.40;;;;;;5113687;28;20027;-64
2022/07/09 11:49:44;;;;;;;3.58;0.70;;;27.90;35.50;;;;;;5113755;28;20110;-64
2022/07/09 11:52:20;;;;;;;3.42;0.70;;;27.80;34.30;;;;;;5113477;28;20071;-65
2022/07/09 11:55:05;;;;;;;4.93;0.60;;;27.80;34.90;;;;;;5113317;28;20043;-64
2022/07/09 11:57:33;;;;;;;4.80;0.80;;;27.80;35.80;;;;;;5112244;28;20389;-64
2022/07/09 11:59:59;;;;;;;1.58;0.85;;;27.80;36.50;;;;;;5113468;28;20032;-64
2022/07/09 12:02:37;;;;;;;13.30;1.08;;;27.80;36.70;;;;;;5113528;28;20100;-64
2022/07/09 12:05:06;;;;;;;4.88;0.85;;;27.80;37.10;;;;;;5113358;28;20058;-64
2022/07/09 12:07:32;;;;;;;2.65;0.90;;;27.90;37.00;;;;;;5113795;28;20047;-64
2022/07/09 12:09:59;;;;;;;1.42;0.52;;;27.90;37.00;;;;;;5113284;28;20040;-64
2022/07/09 12:12:25;;;;;;;8.00;0.82;;;28.00;36.10;;;;;;5113276;28;20051;-64
2022/07/09 12:14:51;;;;;;;1.65;0.70;;;28.10;36.30;;;;;;5113701;28;20489;-64
2022/07/09 12:17:22;;;;;;;1.15;0.60;;;28.10;36.50;;;;;;5113109;28;20051;-64
2022/07/09 12:19:48;;;;;;;2.75;0.77;;;28.30;36.10;;;;;;5113706;28;20043;-64
2022/07/09 17:03:46;;;;;;;2.58;0.80;;;29.40;37.20;;;;;;5096058;28;20405;-66
2022/07/09 17:06:12;;;;;;;2.78;0.93;;;29.50;37.00;;;;;;5115650;28;20036;-64
2022/07/09 17:08:38;;;;;;;2.95;0.82;;;29.50;36.80;;;;;;5115702;28;20043;-66
2022/07/09 17:11:04;;;;;;;6.60;0.65;;;29.50;36.90;;;;;;5115445;28;20032;-65
2022/07/09 17:13:30;;;;;;;4.75;1.00;;;29.50;36.50;;;;;;5115659;28;20441;-66
2022/07/09 17:15:56;;;;;;;1.92;0.73;;;29.40;36.70;;;;;;5116303;27;20072;-65
2022/07/09 17:18:22;;;;;;;4.18;0.80;;;29.40;37.10;;;;;;5116173;27;20036;-65
2022/07/09 17:20:51;;;;;;;2.92;1.00;;;29.40;37.10;;;;;;5116063;28;20081;-65
2022/07/09 17:23:16;;;;;;;2.38;1.10;;;29.40;37.40;;;;;;5115892;28;20036;-64
2022/07/09 17:25:42;;;;;;;3.08;0.90;;;29.40;37.30;;;;;;5115774;28;20038;-65
2022/07/09 17:28:08;;;;;;;3.65;0.80;;;29.30;37.20;;;;;;5115580;28;20028;-65